Terminal Aerodrome Forecast
Issued by NWS

Current Version | Previous Version | Text Only | Print | Product List | Glossary Off
Versions: 1 2 3 4 5 6 7 8 9 10 11 12 13 14 15 16 17 18 19 20 21

000
FTUS41 KPBZ 132100 AAA
TAFHLG
TAF AMD
KHLG 132100Z 1321/1418 32010KT P6SM SCT030 BKN035
      TEMPO 1321/1322 -SHSN BKN030
     FM132200 33008KT P6SM BKN035=

USA.gov is the U.S. government's official web portal to all federal, state and local government web resources and services.